Time;durP1;ratioP1;P1;durP2;ratioP2;P2;SDS_P1;SDS_P2;PMS_P1;PMS_P2;Temp;Humidity;BMP_temperature;BMP_pressure;BME280_temperature;BME280_humidity;BME280_pressure;Samples;Min_cycle;Max_cycle;Signal;HPM_P1;HPM_P2
2021/06/22 00:00:18;;;;;;;4.53;2.63;;;16.30;99.90;;;;;;5012356;28;20100;-73
2021/06/22 00:02:45;;;;;;;3.47;1.90;;;16.40;99.90;;;;;;5013597;28;20121;-72
2021/06/22 00:05:11;;;;;;;6.55;3.05;;;16.50;99.90;;;;;;5012086;28;20034;-72
2021/06/22 00:07:36;;;;;;;5.22;2.67;;;16.50;99.90;;;;;;5011900;28;20128;-74
2021/06/22 00:10:04;;;;;;;4.93;2.13;;;16.30;99.90;;;;;;5012047;28;20126;-73
2021/06/22 00:12:30;;;;;;;7.05;2.58;;;16.20;99.90;;;;;;5010726;28;20048;-73
2021/06/22 00:14:55;;;;;;;5.50;2.95;;;16.20;99.90;;;;;;5013574;28;20030;-73
2021/06/22 00:17:21;;;;;;;3.67;2.40;;;16.20;99.90;;;;;;4993867;28;20264;-73
2021/06/22 00:19:47;;;;;;;4.72;2.80;;;16.30;99.90;;;;;;5011905;28;20448;-73
2021/06/22 00:22:12;;;;;;;8.50;2.83;;;16.20;99.90;;;;;;5011892;28;20085;-74
2021/06/22 00:24:38;;;;;;;8.32;3.10;;;16.20;99.90;;;;;;5011609;28;20042;-72
2021/06/22 00:27:04;;;;;;;11.90;3.00;;;16.10;99.90;;;;;;5011469;28;20447;-71
2021/06/22 00:29:29;;;;;;;6.90;3.10;;;16.10;99.90;;;;;;5012887;28;20107;-72
2021/06/22 00:31:55;;;;;;;8.75;3.22;;;16.20;99.90;;;;;;5011570;28;20038;-73
2021/06/22 00:34:21;;;;;;;8.93;3.53;;;16.30;99.90;;;;;;5011496;28;20133;-73
2021/06/22 00:36:46;;;;;;;7.85;3.30;;;16.20;99.90;;;;;;5011661;28;20061;-72
2021/06/22 00:39:12;;;;;;;7.03;3.53;;;16.40;99.90;;;;;;5011102;28;20040;-72
2021/06/22 00:41:37;;;;;;;14.43;3.45;;;16.40;99.90;;;;;;5012764;28;20048;-72
2021/06/22 00:44:08;;;;;;;5.88;3.20;;;16.40;99.90;;;;;;5011171;28;20048;-72
2021/06/22 00:46:35;;;;;;;10.13;3.03;;;16.30;99.90;;;;;;4993775;28;20037;-73
2021/06/22 00:49:01;;;;;;;8.63;3.40;;;16.30;99.90;;;;;;4993595;28;20057;-73
2021/06/22 00:51:26;;;;;;;8.20;3.67;;;16.30;99.90;;;;;;5011382;28;20018;-71
2021/06/22 00:53:53;;;;;;;13.48;3.80;;;16.10;99.90;;;;;;5012421;28;20028;-72
2021/06/22 00:56:18;;;;;;;10.50;3.95;;;16.10;99.90;;;;;;5011179;28;20360;-72
2021/06/22 00:58:44;;;;;;;15.70;3.65;;;16.10;99.90;;;;;;5011064;28;20045;-72
2021/06/22 01:01:10;;;;;;;7.15;3.55;;;16.10;99.90;;;;;;5011115;28;20675;-73
2021/06/22 01:03:36;;;;;;;8.02;3.53;;;16.20;99.90;;;;;;5011151;28;20033;-73
2021/06/22 01:06:02;;;;;;;9.88;3.40;;;16.20;99.90;;;;;;5010830;28;20022;-73
2021/06/22 01:08:27;;;;;;;11.88;4.13;;;16.20;99.90;;;;;;5012307;28;20045;-73
2021/06/22 01:10:54;;;;;;;11.63;3.50;;;16.20;99.90;;;;;;5010843;28;20038;-73
2021/06/22 01:13:19;;;;;;;8.13;3.22;;;16.30;99.90;;;;;;5010745;28;20042;-72
2021/06/22 01:15:45;;;;;;;9.90;4.05;;;16.30;99.90;;;;;;5010761;28;20044;-73
2021/06/22 01:18:11;;;;;;;9.68;4.40;;;16.30;99.90;;;;;;5010505;28;20026;-72
2021/06/22 01:20:37;;;;;;;14.10;4.05;;;16.10;99.90;;;;;;5012275;28;20033;-73
2021/06/22 01:23:05;;;;;;;12.88;4.43;;;16.10;99.90;;;;;;5010865;28;20109;-73
2021/06/22 01:25:31;;;;;;;14.25;4.30;;;16.00;99.90;;;;;;5010913;28;20041;-73
2021/06/22 01:27:57;;;;;;;8.90;3.55;;;15.70;99.90;;;;;;5010100;28;20137;-72
2021/06/22 01:30:24;;;;;;;9.93;4.07;;;15.80;99.90;;;;;;5010440;28;20117;-73
2021/06/22 01:32:50;;;;;;;12.43;4.00;;;15.90;99.90;;;;;;4994515;28;20030;-74
2021/06/22 01:35:16;;;;;;;10.70;3.92;;;16.00;99.90;;;;;;5013921;28;20048;-72
2021/06/22 01:37:51;;;;;;;8.80;3.60;;;16.10;99.90;;;;;;5029598;28;20076;-72
2021/06/22 01:40:17;;;;;;;11.90;3.78;;;16.20;99.90;;;;;;5030186;28;20131;-72
2021/06/22 01:42:43;;;;;;;15.68;4.50;;;16.10;99.90;;;;;;5029990;28;20468;-72
2021/06/22 01:45:09;;;;;;;13.70;3.45;;;16.20;99.90;;;;;;5029988;28;20045;-71
2021/06/22 01:47:34;;;;;;;8.45;3.92;;;16.10;99.90;;;;;;5031684;28;20034;-72
2021/06/22 01:50:02;;;;;;;10.95;3.22;;;16.30;99.90;;;;;;5029833;28;20371;-72
2021/06/22 01:52:28;;;;;;;15.02;3.92;;;16.20;99.90;;;;;;5029775;28;20590;-73
2021/06/22 01:54:55;;;;;;;11.95;3.70;;;16.10;99.90;;;;;;5029637;28;20124;-72
2021/06/22 01:57:24;;;;;;;12.75;3.97;;;16.10;99.90;;;;;;5012293;28;20650;-72
2021/06/22 01:59:51;;;;;;;9.68;3.35;;;16.20;99.90;;;;;;5031472;28;20143;-73
2021/06/22 02:02:17;;;;;;;7.32;3.25;;;16.20;99.90;;;;;;5011980;28;20037;-73
2021/06/22 02:04:44;;;;;;;9.55;3.20;;;16.20;99.90;;;;;;5029864;28;20041;-73
2021/06/22 02:07:10;;;;;;;8.63;3.35;;;16.30;99.90;;;;;;5029804;28;20038;-70
2021/06/22 02:09:35;;;;;;;18.08;4.70;;;16.30;99.90;;;;;;5029900;28;20033;-71
2021/06/22 02:12:01;;;;;;;11.77;3.78;;;16.30;99.90;;;;;;5031290;28;20065;-71
2021/06/22 02:14:27;;;;;;;11.50;4.00;;;16.30;99.90;;;;;;5029997;28;20044;-73
2021/06/22 02:16:52;;;;;;;15.00;4.45;;;16.30;99.90;;;;;;5029541;28;20045;-73
2021/06/22 02:19:18;;;;;;;13.85;4.40;;;16.30;99.90;;;;;;5029800;28;20049;-73
2021/06/22 02:21:44;;;;;;;16.95;4.53;;;16.30;99.90;;;;;;5029351;28;20072;-72
2021/06/22 02:24:10;;;;;;;12.57;3.90;;;16.40;99.90;;;;;;5029354;28;20022;-72
2021/06/22 02:26:35;;;;;;;14.63;5.05;;;16.00;99.90;;;;;;5030916;28;20022;-72
2021/06/22 02:29:01;;;;;;;19.98;5.95;;;16.10;99.90;;;;;;5029172;28;20471;-71
2021/06/22 02:31:27;;;;;;;14.38;4.78;;;15.90;99.90;;;;;;5029102;28;20052;-72
2021/06/22 02:33:53;;;;;;;14.20;4.57;;;16.00;99.90;;;;;;5029388;28;20030;-71
2021/06/22 02:36:23;;;;;;;13.68;4.10;;;16.10;99.90;;;;;;5032043;28;20400;-72
2021/06/22 02:38:49;;;;;;;16.55;4.10;;;16.20;99.90;;;;;;5017455;28;20049;-72
2021/06/22 02:41:14;;;;;;;13.80;5.60;;;16.10;99.90;;;;;;5033447;28;20037;-71
2021/06/22 02:43:40;;;;;;;17.10;5.03;;;16.30;99.90;;;;;;5033272;28;20034;-72
2021/06/22 02:46:06;;;;;;;15.63;4.07;;;16.20;99.90;;;;;;5015640;28;20045;-73
2021/06/22 02:48:31;;;;;;;21.55;4.43;;;16.30;99.90;;;;;;5032806;28;20042;-72
2021/06/22 02:50:57;;;;;;;10.00;4.45;;;16.30;99.90;;;;;;5034662;28;20064;-71
2021/06/22 02:53:23;;;;;;;16.23;4.75;;;16.40;99.90;;;;;;5033141;28;20068;-72
2021/06/22 02:55:48;;;;;;;14.18;4.35;;;16.30;99.90;;;;;;5032909;28;20371;-73
2021/06/22 02:58:14;;;;;;;12.35;4.50;;;16.30;99.90;;;;;;5033102;28;20383;-73
2021/06/22 03:00:40;;;;;;;10.80;3.80;;;16.30;99.90;;;;;;5032814;28;20029;-72
2021/06/22 03:03:05;;;;;;;12.85;3.30;;;16.30;99.90;;;;;;5032826;28;20026;-72
2021/06/22 03:05:31;;;;;;;18.85;4.18;;;16.40;99.90;;;;;;5016888;28;20029;-72
2021/06/22 03:07:58;;;;;;;19.17;4.10;;;16.40;99.90;;;;;;5033054;28;20084;-73
2021/06/22 03:10:25;;;;;;;15.73;4.30;;;16.30;99.90;;;;;;5032788;28;20045;-72
2021/06/22 03:12:51;;;;;;;17.67;4.60;;;16.30;99.90;;;;;;5032766;28;20404;-72
2021/06/22 03:15:18;;;;;;;13.02;4.40;;;16.30;99.90;;;;;;5033336;28;20022;-72
2021/06/22 03:17:45;;;;;;;13.82;4.30;;;16.40;99.90;;;;;;5034145;28;20370;-72
2021/06/22 03:20:11;;;;;;;12.55;3.75;;;16.30;99.90;;;;;;5032582;28;20037;-72
2021/06/22 03:22:37;;;;;;;16.13;4.18;;;16.30;99.90;;;;;;5032285;28;20068;-72
2021/06/22 03:25:05;;;;;;;16.20;3.88;;;16.30;99.90;;;;;;5032525;28;20108;-72
2021/06/22 03:27:30;;;;;;;11.60;3.97;;;16.30;99.90;;;;;;5032668;28;20355;-72
2021/06/22 03:29:56;;;;;;;13.00;4.05;;;16.30;99.90;;;;;;5033896;28;20087;-72
2021/06/22 03:32:22;;;;;;;17.10;3.67;;;16.40;99.90;;;;;;5032591;28;20064;-72
2021/06/22 03:34:47;;;;;;;18.20;4.00;;;16.30;99.90;;;;;;5032189;28;20095;-72
2021/06/22 03:37:14;;;;;;;14.40;4.07;;;16.30;99.90;;;;;;5032132;28;20033;-72
2021/06/22 03:39:39;;;;;;;17.30;4.15;;;16.30;99.90;;;;;;5032033;28;20111;-72
2021/06/22 03:42:09;;;;;;;21.30;4.47;;;16.30;99.90;;;;;;5032386;28;20443;-72
2021/06/22 03:44:36;;;;;;;15.35;3.60;;;16.40;99.90;;;;;;5033891;28;20440;-73
2021/06/22 03:47:02;;;;;;;9.75;3.50;;;16.40;99.90;;;;;;5032460;28;20056;-73
2021/06/22 03:49:27;;;;;;;11.50;3.90;;;16.20;99.90;;;;;;5031935;28;20128;-73
2021/06/22 03:51:54;;;;;;;8.57;3.20;;;16.20;99.90;;;;;;5031967;28;20116;-72
2021/06/22 03:54:20;;;;;;;14.25;3.60;;;16.20;99.90;;;;;;5014511;28;20030;-72
2021/06/22 03:56:46;;;;;;;14.75;4.00;;;16.20;99.90;;;;;;5033677;28;20021;-72
2021/06/22 03:59:12;;;;;;;11.40;3.78;;;16.20;99.90;;;;;;5031938;28;20048;-72
2021/06/22 04:01:37;;;;;;;12.90;4.25;;;16.20;99.90;;;;;;5013920;28;20379;-73
2021/06/22 04:04:03;;;;;;;13.32;3.50;;;16.30;99.90;;;;;;5032114;28;20068;-73
2021/06/22 04:06:29;;;;;;;20.02;3.28;;;16.30;99.90;;;;;;5031846;28;20112;-73
2021/06/22 04:08:55;;;;;;;16.27;4.00;;;16.30;99.90;;;;;;5015708;28;20052;-73
2021/06/22 04:11:22;;;;;;;14.13;4.05;;;16.30;99.90;;;;;;5031895;28;20042;-72
2021/06/22 04:13:47;;;;;;;20.85;4.35;;;16.30;99.90;;;;;;5031598;28;20037;-72
2021/06/22 04:16:13;;;;;;;13.68;3.83;;;16.20;99.90;;;;;;5031464;28;20128;-72
2021/06/22 04:18:39;;;;;;;14.93;3.92;;;16.30;99.90;;;;;;5031576;28;20046;-72
2021/06/22 04:21:04;;;;;;;9.65;4.35;;;16.30;99.90;;;;;;5031395;28;20026;-71
2021/06/22 04:23:30;;;;;;;11.52;4.03;;;16.30;99.90;;;;;;5033027;28;20041;-72
2021/06/22 04:25:56;;;;;;;15.90;4.43;;;16.30;99.90;;;;;;5031033;28;20041;-72
2021/06/22 04:28:21;;;;;;;13.43;4.05;;;16.40;99.90;;;;;;5031176;28;20045;-72
2021/06/22 04:30:47;;;;;;;14.00;4.10;;;16.30;99.90;;;;;;5031264;28;20030;-72
2021/06/22 04:33:13;;;;;;;14.90;4.00;;;16.30;99.90;;;;;;5031173;28;20444;-73
2021/06/22 04:35:39;;;;;;;11.48;4.82;;;16.40;99.90;;;;;;5015454;28;20033;-73
2021/06/22 04:38:06;;;;;;;13.95;4.00;;;16.50;99.90;;;;;;5031174;28;20041;-72
2021/06/22 04:40:33;;;;;;;19.33;3.92;;;16.40;99.90;;;;;;5013423;28;20044;-72
2021/06/22 04:42:59;;;;;;;10.57;3.72;;;16.40;99.90;;;;;;5031231;28;20241;-72
2021/06/22 04:45:24;;;;;;;17.15;4.20;;;16.40;99.90;;;;;;5013665;28;20041;-72
2021/06/22 04:47:50;;;;;;;12.50;3.65;;;16.50;99.90;;;;;;5032694;28;20367;-71
2021/06/22 04:50:16;;;;;;;18.88;4.30;;;16.50;99.90;;;;;;5030939;28;20046;-71
2021/06/22 04:52:41;;;;;;;18.23;3.88;;;16.60;99.90;;;;;;5030753;28;20413;-72
2021/06/22 04:55:15;;;;;;;12.93;4.15;;;16.40;99.90;;;;;;5031024;28;20437;-72
2021/06/22 04:57:42;;;;;;;16.10;4.28;;;16.40;99.90;;;;;;5030381;28;20096;-72
2021/06/22 05:00:09;;;;;;;12.70;4.38;;;16.40;99.90;;;;;;5030546;28;20430;-72
2021/06/22 05:02:35;;;;;;;16.50;4.13;;;16.30;99.90;;;;;;5032455;28;20056;-73
2021/06/22 05:05:03;;;;;;;19.23;4.22;;;16.30;99.90;;;;;;5030728;28;20292;-72
2021/06/22 05:07:29;;;;;;;15.02;4.57;;;16.40;99.90;;;;;;5031003;28;20064;-71
2021/06/22 05:09:54;;;;;;;12.60;4.00;;;16.40;99.90;;;;;;5030773;28;20448;-73
2021/06/22 05:12:20;;;;;;;10.85;4.63;;;16.60;99.90;;;;;;5030864;28;20502;-72
2021/06/22 05:14:47;;;;;;;21.63;4.13;;;16.50;99.90;;;;;;5032181;28;20093;-74
2021/06/22 05:17:12;;;;;;;11.32;4.50;;;16.60;99.90;;;;;;5030639;28;20128;-76
2021/06/22 05:19:38;;;;;;;24.63;4.70;;;16.60;99.90;;;;;;5030148;28;20124;-73
2021/06/22 05:22:04;;;;;;;25.80;4.63;;;16.50;99.90;;;;;;5030242;28;20037;-74
2021/06/22 05:24:29;;;;;;;10.43;4.10;;;16.50;99.90;;;;;;5030065;28;20037;-74
2021/06/22 05:26:55;;;;;;;13.43;3.75;;;16.60;99.90;;;;;;5031650;28;20080;-73
2021/06/22 05:29:20;;;;;;;18.83;4.68;;;16.70;99.90;;;;;;5030150;28;20045;-77
2021/06/22 05:31:46;;;;;;;14.32;4.40;;;16.70;99.90;;;;;;5029637;28;20379;-73
2021/06/22 05:34:12;;;;;;;13.93;4.68;;;16.80;99.90;;;;;;5012373;28;20046;-73
2021/06/22 05:36:37;;;;;;;11.07;4.25;;;16.60;99.80;;;;;;5029877;28;20034;-74
2021/06/22 05:39:03;;;;;;;11.73;4.53;;;16.70;99.90;;;;;;5029572;28;20025;-72
2021/06/22 05:41:29;;;;;;;14.05;4.93;;;16.80;99.90;;;;;;5031456;28;20021;-74
2021/06/22 05:43:55;;;;;;;13.88;5.50;;;16.90;99.90;;;;;;5012292;28;20083;-74
2021/06/22 05:46:20;;;;;;;14.02;4.88;;;17.00;99.90;;;;;;5012343;28;20033;-75
2021/06/22 05:48:46;;;;;;;23.20;6.03;;;17.00;99.90;;;;;;5011937;28;20084;-73
2021/06/22 05:51:11;;;;;;;19.05;6.20;;;17.00;99.90;;;;;;5029697;28;20036;-74
2021/06/22 05:53:37;;;;;;;13.68;5.13;;;17.10;99.90;;;;;;5031127;28;20024;-74
2021/06/22 05:56:03;;;;;;;17.95;5.15;;;17.10;99.60;;;;;;5011906;28;20037;-74
2021/06/22 05:58:28;;;;;;;16.70;5.80;;;17.10;99.90;;;;;;5029821;28;20588;-73
2021/06/22 06:00:54;;;;;;;17.55;6.45;;;17.20;99.60;;;;;;5029704;28;20029;-73
2021/06/22 06:03:20;;;;;;;14.90;4.80;;;17.20;99.80;;;;;;5014337;28;20403;-73
2021/06/22 06:05:45;;;;;;;19.63;5.60;;;17.30;99.40;;;;;;4993960;28;20038;-73
2021/06/22 06:08:11;;;;;;;17.65;4.15;;;17.40;99.50;;;;;;5009334;28;20475;-74
2021/06/22 06:10:37;;;;;;;16.52;4.45;;;17.40;99.40;;;;;;5008880;28;20040;-73
2021/06/22 06:13:03;;;;;;;13.45;4.15;;;17.40;99.00;;;;;;5009541;28;20041;-76
2021/06/22 06:15:28;;;;;;;10.50;4.63;;;17.40;99.20;;;;;;5009656;28;20669;-74
2021/06/22 06:17:54;;;;;;;14.98;4.82;;;17.40;98.90;;;;;;4993593;28;20061;-74
2021/06/22 06:20:20;;;;;;;20.20;4.80;;;17.50;98.90;;;;;;5009532;28;20084;-75
2021/06/22 06:22:46;;;;;;;13.73;3.72;;;17.50;98.70;;;;;;5009227;28;20034;-73
2021/06/22 06:25:13;;;;;;;11.88;3.83;;;17.50;98.80;;;;;;5009104;28;20041;-73
2021/06/22 06:30:43;;;;;;;12.18;3.85;;;17.50;98.40;;;;;;4948816;28;20362;-74
2021/06/22 06:33:09;;;;;;;20.13;4.18;;;17.60;98.70;;;;;;4997804;28;20091;-74
2021/06/22 06:35:35;;;;;;;15.68;4.30;;;17.60;98.30;;;;;;5011670;28;20040;-74
2021/06/22 06:38:01;;;;;;;12.23;3.42;;;17.60;98.20;;;;;;5009121;28;20037;-74
2021/06/22 06:40:26;;;;;;;16.05;3.50;;;17.60;98.20;;;;;;5009030;28;20038;-73
2021/06/22 06:42:52;;;;;;;9.88;3.25;;;17.60;98.00;;;;;;4991897;28;20045;-75
2021/06/22 06:45:18;;;;;;;17.23;4.45;;;17.70;97.90;;;;;;5009173;28;20100;-73
2021/06/22 06:47:45;;;;;;;8.90;3.28;;;17.70;97.90;;;;;;5010785;28;20058;-73
2021/06/22 06:50:11;;;;;;;14.13;3.60;;;17.80;97.90;;;;;;4991457;28;20052;-73
2021/06/22 06:52:37;;;;;;;17.08;4.38;;;17.80;97.70;;;;;;4991885;28;20038;-72
2021/06/22 06:55:04;;;;;;;11.38;3.53;;;17.80;97.70;;;;;;5008787;28;20050;-74
2021/06/22 06:57:29;;;;;;;14.05;3.63;;;18.00;97.50;;;;;;5008837;28;20057;-74
2021/06/22 06:59:55;;;;;;;17.75;3.40;;;18.00;97.50;;;;;;4993409;28;20022;-74
2021/06/22 07:02:21;;;;;;;9.20;3.17;;;18.10;97.50;;;;;;5009381;28;20476;-73
2021/06/22 07:04:46;;;;;;;13.98;3.08;;;18.20;97.00;;;;;;4991204;28;20121;-74
2021/06/22 07:07:12;;;;;;;9.30;2.97;;;18.20;96.90;;;;;;5009051;28;20042;-73
2021/06/22 07:09:37;;;;;;;12.95;3.08;;;18.20;97.00;;;;;;4991397;28;20113;-73
2021/06/22 07:12:04;;;;;;;9.38;2.92;;;18.30;96.80;;;;;;4991486;28;20096;-73
2021/06/22 07:14:29;;;;;;;20.85;7.97;;;18.20;96.90;;;;;;5010605;28;20392;-73
2021/06/22 07:16:55;;;;;;;16.63;4.00;;;18.20;96.90;;;;;;5009155;28;20512;-73
2021/06/22 07:19:21;;;;;;;15.15;4.30;;;18.20;96.80;;;;;;4991079;28;20065;-74
2021/06/22 07:21:47;;;;;;;24.88;11.15;;;18.30;96.70;;;;;;5010383;28;20037;-74
2021/06/22 07:24:13;;;;;;;11.80;4.82;;;18.30;96.80;;;;;;5012586;28;20026;-74
2021/06/22 07:26:39;;;;;;;11.10;3.72;;;18.30;97.00;;;;;;5014215;28;20025;-73
2021/06/22 07:29:06;;;;;;;10.35;4.03;;;18.40;96.50;;;;;;5012159;28;20085;-73
2021/06/22 07:31:33;;;;;;;15.73;4.68;;;18.30;96.20;;;;;;5012658;28;20030;-72
2021/06/22 07:33:59;;;;;;;17.87;4.77;;;18.40;96.50;;;;;;5012499;28;20048;-72
2021/06/22 07:36:24;;;;;;;16.45;3.47;;;18.40;96.20;;;;;;4995516;28;20364;-73
2021/06/22 07:38:50;;;;;;;13.93;3.38;;;18.40;95.60;;;;;;5013873;28;20018;-72
2021/06/22 07:41:17;;;;;;;14.82;4.47;;;18.40;95.70;;;;;;5011903;28;20130;-73
2021/06/22 07:43:44;;;;;;;21.95;4.78;;;18.50;95.50;;;;;;5011998;28;20042;-73
2021/06/22 07:46:09;;;;;;;15.15;3.65;;;18.40;95.70;;;;;;4994651;28;20061;-72
2021/06/22 07:48:35;;;;;;;11.77;3.25;;;18.40;95.70;;;;;;4994290;28;20030;-73
2021/06/22 07:51:01;;;;;;;9.07;3.28;;;18.50;95.30;;;;;;5013536;28;20029;-71
2021/06/22 07:53:27;;;;;;;14.13;3.17;;;18.50;95.40;;;;;;5012472;28;20049;-72
2021/06/22 07:55:52;;;;;;;15.13;3.47;;;18.60;95.40;;;;;;5012356;28;20372;-74
2021/06/22 07:58:18;;;;;;;8.80;2.85;;;18.60;95.40;;;;;;5011788;28;20046;-73
2021/06/22 08:00:45;;;;;;;15.32;3.78;;;18.60;95.00;;;;;;5012003;28;20084;-73
2021/06/22 08:03:16;;;;;;;11.35;3.05;;;18.70;95.00;;;;;;4994816;28;20036;-73
2021/06/22 08:05:44;;;;;;;15.88;3.30;;;19.00;94.80;;;;;;5013442;28;20037;-72
2021/06/22 08:08:16;;;;;;;11.00;3.88;;;19.20;94.40;;;;;;5011742;28;20057;-73
2021/06/22 08:10:42;;;;;;;11.55;3.03;;;19.40;94.20;;;;;;5011721;28;20033;-73
2021/06/22 08:13:08;;;;;;;9.05;2.83;;;19.60;94.20;;;;;;5011344;28;20038;-71
2021/06/22 08:15:35;;;;;;;13.43;3.03;;;19.80;94.00;;;;;;4994096;28;20034;-72
2021/06/22 08:18:01;;;;;;;14.45;3.53;;;20.00;93.30;;;;;;5012974;28;20018;-73
2021/06/22 08:20:26;;;;;;;13.30;2.47;;;20.10;93.20;;;;;;5011264;28;20034;-72
2021/06/22 08:22:53;;;;;;;12.05;2.90;;;19.90;92.90;;;;;;5011524;28;20512;-71
2021/06/22 08:25:21;;;;;;;7.65;2.42;;;19.70;93.30;;;;;;5011868;28;20042;-72
2021/06/22 08:27:48;;;;;;;9.80;2.80;;;19.70;93.20;;;;;;4993778;28;20037;-71
2021/06/22 08:30:15;;;;;;;13.50;2.75;;;19.60;93.50;;;;;;4994163;28;20037;-72
2021/06/22 08:32:41;;;;;;;13.07;3.17;;;19.70;93.50;;;;;;5011941;28;20034;-73
2021/06/22 08:35:07;;;;;;;9.27;2.72;;;19.60;93.50;;;;;;5011094;28;20037;-72
2021/06/22 08:37:33;;;;;;;9.98;2.45;;;19.50;93.70;;;;;;5011054;28;20038;-73
2021/06/22 08:39:58;;;;;;;9.43;3.08;;;19.40;93.80;;;;;;5011036;28;20368;-73
2021/06/22 08:42:24;;;;;;;19.17;3.15;;;19.40;94.10;;;;;;4993293;28;20042;-73
2021/06/22 08:44:51;;;;;;;13.40;3.40;;;19.20;94.20;;;;;;5012705;28;20030;-75
2021/06/22 08:47:25;;;;;;;18.02;3.85;;;19.30;94.40;;;;;;5011004;28;20048;-73
2021/06/22 08:49:52;;;;;;;11.73;3.00;;;19.30;94.30;;;;;;5011055;28;20069;-72
2021/06/22 08:52:29;;;;;;;16.90;3.22;;;19.30;94.20;;;;;;5010845;28;20045;-73
2021/06/22 08:54:55;;;;;;;16.38;6.40;;;19.30;94.20;;;;;;4993270;28;20069;-73
2021/06/22 08:57:22;;;;;;;8.80;3.17;;;19.30;94.00;;;;;;5011498;28;20076;-73
2021/06/22 08:59:50;;;;;;;16.08;2.95;;;19.20;93.60;;;;;;5012489;28;20393;-73
2021/06/22 09:02:22;;;;;;;8.95;2.80;;;19.00;93.90;;;;;;4992635;28;20049;-73
2021/06/22 09:04:48;;;;;;;12.43;3.00;;;19.00;94.30;;;;;;4992902;28;20030;-74
2021/06/22 09:08:00;;;;;;;15.68;3.70;;;19.00;93.90;;;;;;4993163;28;20563;-74
2021/06/22 09:10:29;;;;;;;13.80;2.97;;;19.00;93.70;;;;;;5005661;28;20372;-73
2021/06/22 09:12:57;;;;;;;12.20;3.00;;;19.00;93.60;;;;;;5010590;28;20476;-74
2021/06/22 09:15:29;;;;;;;14.73;2.50;;;19.00;93.70;;;;;;5010634;28;20124;-73
2021/06/22 09:17:56;;;;;;;8.73;2.80;;;19.00;93.40;;;;;;4994945;28;20030;-73
2021/06/22 09:20:42;;;;;;;12.43;2.90;;;19.10;93.30;;;;;;5010691;28;20046;-73
2021/06/22 09:23:20;;;;;;;6.68;2.45;;;19.20;93.10;;;;;;5010502;28;20038;-73
2021/06/22 09:25:48;;;;;;;13.70;2.97;;;19.30;93.00;;;;;;5010656;28;20041;-75
2021/06/22 09:28:15;;;;;;;8.45;2.65;;;19.30;92.90;;;;;;4992304;28;20049;-74
2021/06/22 09:30:44;;;;;;;10.13;2.67;;;19.30;92.90;;;;;;5010472;28;20042;-73
2021/06/22 09:33:30;;;;;;;14.73;3.17;;;19.30;93.10;;;;;;5010376;28;20327;-74
2021/06/22 09:36:08;;;;;;;11.90;3.17;;;19.30;93.20;;;;;;5012014;28;20391;-74
2021/06/22 09:38:43;;;;;;;9.00;2.70;;;19.30;93.40;;;;;;5010488;28;20113;-71
2021/06/22 09:41:12;;;;;;;11.02;2.60;;;19.20;93.10;;;;;;5009990;28;20069;-72
2021/06/22 09:43:46;;;;;;;17.02;2.75;;;19.10;93.10;;;;;;5010411;28;20092;-72
2021/06/22 09:46:14;;;;;;;12.85;2.70;;;19.00;93.20;;;;;;4992872;28;20056;-73
2021/06/22 09:48:41;;;;;;;9.20;2.45;;;19.00;93.30;;;;;;4992386;28;20038;-73
2021/06/22 09:51:07;;;;;;;16.25;3.08;;;18.90;93.20;;;;;;5010194;28;20040;-73
2021/06/22 09:53:33;;;;;;;11.55;2.72;;;19.00;93.20;;;;;;4994234;28;20286;-74
2021/06/22 09:56:00;;;;;;;9.88;2.40;;;18.90;93.10;;;;;;5009957;28;20034;-75
2021/06/22 09:58:38;;;;;;;10.93;3.17;;;18.80;93.30;;;;;;5009915;28;20037;-70
2021/06/22 10:01:04;;;;;;;;;;;18.80;93.50;;;;;;5010421;28;20026;-73
2021/06/22 10:03:38;;;;;;;17.25;5.63;;;18.90;93.40;;;;;;5010217;28;19931;-72
2021/06/22 10:06:09;;;;;;;24.92;10.00;;;18.90;93.50;;;;;;5009718;28;20036;-72
2021/06/22 10:08:54;;;;;;;18.92;4.25;;;19.00;93.60;;;;;;5011172;28;20484;-71
2021/06/22 10:11:32;;;;;;;14.38;3.10;;;19.10;93.30;;;;;;5009754;28;20487;-72
2021/06/22 10:13:58;;;;;;;15.63;3.72;;;19.20;93.30;;;;;;5009450;28;20049;-74
2021/06/22 10:16:26;;;;;;;12.52;3.33;;;19.30;93.30;;;;;;5009798;28;20468;-73
2021/06/22 10:18:52;;;;;;;11.80;3.42;;;19.20;93.10;;;;;;5009943;28;20034;-73
2021/06/22 10:21:18;;;;;;;15.68;2.20;;;19.40;93.30;;;;;;5009561;28;20033;-73
2021/06/22 10:23:44;;;;;;;15.27;3.10;;;19.50;92.60;;;;;;4994130;28;20353;-71
2021/06/22 10:26:10;;;;;;;15.85;2.85;;;19.70;91.90;;;;;;5009910;28;20081;-72
2021/06/22 10:28:37;;;;;;;14.27;3.20;;;19.90;91.40;;;;;;4989024;28;20543;-71
2021/06/22 10:31:03;;;;;;;9.05;3.88;;;20.10;91.30;;;;;;4989855;28;20486;-72
2021/06/22 10:33:30;;;;;;;11.18;3.33;;;20.30;91.00;;;;;;4983391;28;20045;-72
2021/06/22 10:35:57;;;;;;;11.88;2.95;;;20.40;90.80;;;;;;4991549;28;20015;-74
2021/06/22 10:38:25;;;;;;;15.20;3.20;;;20.50;90.30;;;;;;4989781;28;20086;-71
2021/06/22 10:40:55;;;;;;;10.90;2.60;;;20.50;90.60;;;;;;4989811;28;20038;-72
2021/06/22 10:43:38;;;;;;;9.77;2.80;;;20.50;90.20;;;;;;4990094;28;20041;-71
2021/06/22 10:46:06;;;;;;;12.80;2.78;;;20.50;90.40;;;;;;4989912;28;20523;-70
2021/06/22 10:48:51;;;;;;;13.25;3.22;;;20.50;90.40;;;;;;4983652;28;20062;-71
2021/06/22 10:51:30;;;;;;;7.55;2.65;;;20.50;90.80;;;;;;4989520;28;20019;-72
2021/06/22 10:53:58;;;;;;;8.68;2.97;;;20.40;90.40;;;;;;4988171;28;20053;-72
2021/06/22 10:56:26;;;;;;;4.07;1.73;;;20.30;90.20;;;;;;4983746;28;20488;-72
2021/06/22 10:59:14;;;;;;;6.43;2.47;;;20.20;90.00;;;;;;4993489;28;20188;-73
2021/06/22 11:02:07;;;;;;;10.35;2.58;;;20.10;89.70;;;;;;4988448;28;20042;-72
2021/06/22 11:04:33;;;;;;;10.07;2.30;;;20.10;89.70;;;;;;4990913;28;20057;-72
2021/06/22 11:07:05;;;;;;;11.20;2.67;;;20.00;89.70;;;;;;4993110;28;20306;-71
2021/06/22 11:09:32;;;;;;;9.27;2.90;;;20.20;89.60;;;;;;4993863;28;20038;-70
2021/06/22 11:12:19;;;;;;;8.48;2.25;;;20.30;90.00;;;;;;4994638;28;20176;-73
2021/06/22 11:15:01;;;;;;;10.73;3.05;;;20.30;90.10;;;;;;4993275;28;20511;-71
2021/06/22 11:17:42;;;;;;;14.38;3.22;;;20.60;89.60;;;;;;4986839;28;20035;-72
2021/06/22 11:20:13;;;;;;;15.60;4.28;;;20.60;89.80;;;;;;4993130;28;20089;-72
2021/06/22 11:23:11;;;;;;;8.13;2.50;;;20.70;90.00;;;;;;4993307;28;20045;-74
2021/06/22 11:25:49;;;;;;;9.57;2.83;;;20.80;89.40;;;;;;4993045;28;20038;-72
2021/06/22 11:28:15;;;;;;;;;;;20.80;90.20;;;;;;4989308;28;20061;-73
2021/06/22 11:31:01;;;;;;;13.48;3.80;;;20.90;89.90;;;;;;4992914;28;19914;-72
2021/06/22 11:33:35;;;;;;;12.18;3.38;;;20.80;88.60;;;;;;4971906;28;20050;-71
2021/06/22 11:36:16;;;;;;;8.13;2.80;;;20.90;87.50;;;;;;4993156;28;20026;-73
2021/06/22 11:39:05;;;;;;;9.23;1.95;;;21.00;86.00;;;;;;4992636;28;20045;-72
2021/06/22 11:41:31;;;;;;;8.13;2.03;;;21.20;87.00;;;;;;4970769;28;20173;-73
2021/06/22 11:44:09;;;;;;;6.97;2.03;;;21.40;85.30;;;;;;4992295;28;20121;-71
2021/06/22 11:46:43;;;;;;;7.60;2.17;;;21.70;83.90;;;;;;4992624;28;20114;-75
2021/06/22 11:49:08;;;;;;;10.50;1.77;;;21.90;83.30;;;;;;4992546;28;20096;-72
2021/06/22 11:51:46;;;;;;;7.40;2.17;;;21.80;81.60;;;;;;4992430;28;20058;-72
2021/06/22 11:54:12;;;;;;;11.20;1.85;;;21.90;82.10;;;;;;4992415;28;20026;-72
2021/06/22 11:56:38;;;;;;;8.43;2.00;;;21.80;82.10;;;;;;4994085;28;20026;-73
2021/06/22 11:59:04;;;;;;;6.18;2.53;;;21.70;82.60;;;;;;4992345;28;20052;-72
2021/06/22 12:01:30;;;;;;;7.47;2.60;;;21.80;83.60;;;;;;4992322;28;20413;-72
2021/06/22 12:03:55;;;;;;;10.73;3.20;;;21.80;83.20;;;;;;4992255;28;20027;-72
2021/06/22 12:06:23;;;;;;;7.65;3.03;;;21.70;83.80;;;;;;4992306;28;20172;-73
2021/06/22 12:08:48;;;;;;;14.80;3.97;;;21.40;84.30;;;;;;4972283;28;20146;-71
2021/06/22 12:11:28;;;;;;;9.23;2.70;;;21.20;84.30;;;;;;4971120;28;20517;-72
2021/06/22 12:13:54;;;;;;;10.18;2.97;;;21.00;84.50;;;;;;4989860;28;20491;-72
2021/06/22 12:16:25;;;;;;;8.25;2.35;;;21.30;85.50;;;;;;4992108;28;20056;-74
2021/06/22 12:18:53;;;;;;;6.00;1.65;;;21.40;84.10;;;;;;4992168;28;20491;-72
2021/06/22 12:21:20;;;;;;;10.38;1.90;;;21.40;83.80;;;;;;4991889;28;20168;-72
2021/06/22 12:23:45;;;;;;;9.63;2.75;;;21.50;84.00;;;;;;4993705;28;20440;-72
2021/06/22 12:26:12;;;;;;;8.70;1.95;;;21.50;83.00;;;;;;4971588;28;20653;-71
2021/06/22 12:28:39;;;;;;;9.00;2.30;;;21.50;82.50;;;;;;4994654;28;20136;-72
2021/06/22 12:31:05;;;;;;;5.38;2.08;;;21.60;82.60;;;;;;5011304;28;20456;-72
2021/06/22 12:33:43;;;;;;;12.20;2.15;;;21.40;81.80;;;;;;5011298;28;20070;-73
2021/06/22 12:36:11;;;;;;;5.20;1.35;;;21.30;82.10;;;;;;5011377;28;20524;-71
2021/06/22 12:38:39;;;;;;;8.25;1.73;;;21.40;82.10;;;;;;5012895;28;20034;-71
2021/06/22 12:41:08;;;;;;;11.30;2.55;;;21.70;82.40;;;;;;5010991;28;20125;-71
2021/06/22 12:43:48;;;;;;;12.35;3.30;;;21.90;81.40;;;;;;5010961;28;20394;-72
2021/06/22 12:46:17;;;;;;;6.20;1.75;;;22.00;81.90;;;;;;5003454;28;20073;-73